KLND/LND METAR and TAF weather

Enter ICAO airport designator
Station Type Date Time Source
KLND METAR 2022/01/18 07:53 UTC NOAA

KLND 180753Z AUTO 32004KT 10SM CLR M01/M05 A2982 RMK AO2 SLP109 T10061050


Station Type Date Time Source
KLND Decoded METAR 2022/01/18 07:53 UTC NOAA

LANDER HUNT FIELD, WY, United States (KLND) 42-49N 108-44W 1694M
Jan 18, 2022 - 02:53 AM EST / 2022.01.18 0753 UTC
Wind: from the NW (320 degrees) at 5 MPH (4 KT):0
Visibility: 10 mile(s):0
Sky conditions: clear
Temperature: 30.9 F (-0.6 C)
Windchill: 26 F (-3 C):1
Dew Point: 23.0 F (-5.0 C)
Relative Humidity: 72%
Pressure (altimeter): 29.82 in. Hg (1009 hPa)
ob: KLND 180753Z AUTO 32004KT 10SM CLR M01/M05 A2982 RMK AO2 SLP109 T10061050
cycle: 8

Station Type Date Time Source
KLND TAF 2022/01/18 06:34 UTC NOAA

TAF KLND 180532Z 1806/1906 VRB05KT P6SM FEW100 BKN180

Example: see airport list